sensor_id;sensor_type;location;lat;lon;timestamp;P1;durP1;ratioP1;P2;durP2;ratioP2
33672;SDS011;20011;51.510;9.942;2022-08-16T00:01:14;12.48;;;5.40;;
33672;SDS011;20011;51.510;9.942;2022-08-16T00:03:42;5.82;;;5.22;;
33672;SDS011;20011;51.510;9.942;2022-08-16T00:06:10;9.52;;;5.25;;
33672;SDS011;20011;51.510;9.942;2022-08-16T00:08:40;7.22;;;5.55;;
33672;SDS011;20011;51.510;9.942;2022-08-16T00:11:11;6.25;;;5.25;;
33672;SDS011;20011;51.510;9.942;2022-08-16T00:13:42;8.45;;;5.72;;
33672;SDS011;20011;51.510;9.942;2022-08-16T00:16:23;8.93;;;5.63;;
33672;SDS011;20011;51.510;9.942;2022-08-16T00:19:12;11.05;;;5.10;;
33672;SDS011;20011;51.510;9.942;2022-08-16T00:21:47;8.50;;;5.22;;
33672;SDS011;20011;51.510;9.942;2022-08-16T00:24:21;11.88;;;5.93;;
33672;SDS011;20011;51.510;9.942;2022-08-16T00:26:57;14.88;;;6.25;;
33672;SDS011;20011;51.510;9.942;2022-08-16T00:29:26;9.35;;;5.93;;
33672;SDS011;20011;51.510;9.942;2022-08-16T00:31:56;10.33;;;6.07;;
33672;SDS011;20011;51.510;9.942;2022-08-16T00:34:31;7.43;;;6.05;;
33672;SDS011;20011;51.510;9.942;2022-08-16T00:37:20;9.38;;;5.55;;
33672;SDS011;20011;51.510;9.942;2022-08-16T00:42:25;6.32;;;5.18;;
33672;SDS011;20011;51.510;9.942;2022-08-16T00:48:23;8.25;;;5.32;;
33672;SDS011;20011;51.510;9.942;2022-08-16T00:50:58;14.32;;;6.20;;
33672;SDS011;20011;51.510;9.942;2022-08-16T00:53:30;11.38;;;6.38;;
33672;SDS011;20011;51.510;9.942;2022-08-16T00:55:59;10.27;;;6.13;;
33672;SDS011;20011;51.510;9.942;2022-08-16T00:58:31;10.35;;;5.97;;
33672;SDS011;20011;51.510;9.942;2022-08-16T01:01:01;8.65;;;6.15;;
33672;SDS011;20011;51.510;9.942;2022-08-16T01:03:34;13.20;;;6.30;;
33672;SDS011;20011;51.510;9.942;2022-08-16T01:06:07;10.23;;;6.50;;
33672;SDS011;20011;51.510;9.942;2022-08-16T01:08:57;8.30;;;6.28;;
33672;SDS011;20011;51.510;9.942;2022-08-16T01:11:29;8.98;;;6.88;;
33672;SDS011;20011;51.510;9.942;2022-08-16T01:13:59;12.20;;;6.70;;
33672;SDS011;20011;51.510;9.942;2022-08-16T01:16:35;9.30;;;7.30;;
33672;SDS011;20011;51.510;9.942;2022-08-16T01:19:25;8.73;;;7.13;;
33672;SDS011;20011;51.510;9.942;2022-08-16T01:21:58;9.23;;;6.63;;
33672;SDS011;20011;51.510;9.942;2022-08-16T01:25:23;8.07;;;6.60;;
33672;SDS011;20011;51.510;9.942;2022-08-16T01:28:01;7.68;;;5.80;;
33672;SDS011;20011;51.510;9.942;2022-08-16T01:30:34;8.10;;;5.63;;
33672;SDS011;20011;51.510;9.942;2022-08-16T01:33:15;8.30;;;6.35;;
33672;SDS011;20011;51.510;9.942;2022-08-16T01:35:48;10.15;;;6.10;;
33672;SDS011;20011;51.510;9.942;2022-08-16T01:38:30;9.95;;;6.55;;
33672;SDS011;20011;51.510;9.942;2022-08-16T01:43:33;7.90;;;6.53;;
33672;SDS011;20011;51.510;9.942;2022-08-16T01:46:04;9.35;;;6.05;;
33672;SDS011;20011;51.510;9.942;2022-08-16T01:48:58;9.90;;;6.85;;
33672;SDS011;20011;51.510;9.942;2022-08-16T01:51:29;8.35;;;6.07;;
33672;SDS011;20011;51.510;9.942;2022-08-16T01:53:58;8.48;;;6.28;;
33672;SDS011;20011;51.510;9.942;2022-08-16T01:56:34;10.48;;;6.80;;
33672;SDS011;20011;51.510;9.942;2022-08-16T01:59:04;12.10;;;7.03;;
33672;SDS011;20011;51.510;9.942;2022-08-16T02:01:41;7.45;;;6.60;;
33672;SDS011;20011;51.510;9.942;2022-08-16T02:04:16;9.55;;;6.95;;
33672;SDS011;20011;51.510;9.942;2022-08-16T02:07:04;8.30;;;6.65;;
33672;SDS011;20011;51.510;9.942;2022-08-16T02:09:38;8.48;;;6.70;;
33672;SDS011;20011;51.510;9.942;2022-08-16T02:12:07;9.13;;;6.50;;
33672;SDS011;20011;51.510;9.942;2022-08-16T02:14:55;10.23;;;6.18;;
33672;SDS011;20011;51.510;9.942;2022-08-16T02:19:55;8.52;;;5.88;;
33672;SDS011;20011;51.510;9.942;2022-08-16T02:22:26;7.68;;;6.13;;
33672;SDS011;20011;51.510;9.942;2022-08-16T02:25:02;10.40;;;6.28;;
33672;SDS011;20011;51.510;9.942;2022-08-16T02:27:35;6.43;;;5.63;;
33672;SDS011;20011;51.510;9.942;2022-08-16T02:30:04;8.82;;;5.95;;
33672;SDS011;20011;51.510;9.942;2022-08-16T02:32:34;10.45;;;6.25;;
33672;SDS011;20011;51.510;9.942;2022-08-16T02:35:19;9.07;;;6.70;;
33672;SDS011;20011;51.510;9.942;2022-08-16T02:37:48;8.07;;;6.25;;
33672;SDS011;20011;51.510;9.942;2022-08-16T02:40:22;12.90;;;7.03;;
33672;SDS011;20011;51.510;9.942;2022-08-16T02:42:51;14.55;;;6.53;;
33672;SDS011;20011;51.510;9.942;2022-08-16T02:45:20;8.43;;;6.57;;
33672;SDS011;20011;51.510;9.942;2022-08-16T02:47:54;10.05;;;6.45;;
33672;SDS011;20011;51.510;9.942;2022-08-16T02:50:41;9.48;;;6.32;;
33672;SDS011;20011;51.510;9.942;2022-08-16T02:53:29;10.98;;;6.65;;
33672;SDS011;20011;51.510;9.942;2022-08-16T02:55:57;10.50;;;6.45;;
33672;SDS011;20011;51.510;9.942;2022-08-16T02:58:26;14.82;;;6.10;;
33672;SDS011;20011;51.510;9.942;2022-08-16T03:00:55;10.52;;;6.15;;
33672;SDS011;20011;51.510;9.942;2022-08-16T03:03:25;8.77;;;6.30;;
33672;SDS011;20011;51.510;9.942;2022-08-16T03:06:14;10.95;;;5.38;;
33672;SDS011;20011;51.510;9.942;2022-08-16T03:09:11;7.32;;;5.13;;
33672;SDS011;20011;51.510;9.942;2022-08-16T03:11:45;10.15;;;6.07;;
33672;SDS011;20011;51.510;9.942;2022-08-16T03:14:13;9.38;;;6.57;;
33672;SDS011;20011;51.510;9.942;2022-08-16T03:16:53;8.20;;;5.75;;
33672;SDS011;20011;51.510;9.942;2022-08-16T03:19:31;12.75;;;5.60;;
33672;SDS011;20011;51.510;9.942;2022-08-16T03:22:20;9.63;;;6.18;;
33672;SDS011;20011;51.510;9.942;2022-08-16T03:25:02;10.63;;;5.80;;
33672;SDS011;20011;51.510;9.942;2022-08-16T03:27:34;9.75;;;6.05;;
33672;SDS011;20011;51.510;9.942;2022-08-16T03:30:08;7.93;;;5.45;;
33672;SDS011;20011;51.510;9.942;2022-08-16T03:33:00;7.05;;;5.45;;
33672;SDS011;20011;51.510;9.942;2022-08-16T03:35:38;8.48;;;5.32;;
33672;SDS011;20011;51.510;9.942;2022-08-16T03:38:29;8.02;;;5.65;;
33672;SDS011;20011;51.510;9.942;2022-08-16T03:41:05;21.30;;;6.68;;
33672;SDS011;20011;51.510;9.942;2022-08-16T03:43:53;8.93;;;5.72;;
33672;SDS011;20011;51.510;9.942;2022-08-16T03:46:25;9.52;;;5.72;;
33672;SDS011;20011;51.510;9.942;2022-08-16T03:51:46;10.55;;;5.38;;
33672;SDS011;20011;51.510;9.942;2022-08-16T03:54:20;9.55;;;5.35;;
33672;SDS011;20011;51.510;9.942;2022-08-16T03:56:49;9.55;;;5.60;;
33672;SDS011;20011;51.510;9.942;2022-08-16T03:59:23;11.27;;;5.63;;
33672;SDS011;20011;51.510;9.942;2022-08-16T04:01:51;8.43;;;5.07;;
33672;SDS011;20011;51.510;9.942;2022-08-16T04:04:19;6.47;;;5.07;;
33672;SDS011;20011;51.510;9.942;2022-08-16T04:07:00;8.80;;;5.60;;
33672;SDS011;20011;51.510;9.942;2022-08-16T04:09:32;10.18;;;5.72;;
33672;SDS011;20011;51.510;9.942;2022-08-16T04:12:02;8.30;;;5.10;;
33672;SDS011;20011;51.510;9.942;2022-08-16T04:14:50;7.33;;;5.03;;
33672;SDS011;20011;51.510;9.942;2022-08-16T04:17:20;16.97;;;5.50;;
33672;SDS011;20011;51.510;9.942;2022-08-16T04:19:49;8.05;;;5.32;;
33672;SDS011;20011;51.510;9.942;2022-08-16T04:22:23;17.23;;;6.07;;
33672;SDS011;20011;51.510;9.942;2022-08-16T04:24:57;9.25;;;5.07;;
33672;SDS011;20011;51.510;9.942;2022-08-16T04:27:31;11.25;;;5.32;;
33672;SDS011;20011;51.510;9.942;2022-08-16T04:30:00;7.97;;;6.03;;
33672;SDS011;20011;51.510;9.942;2022-08-16T04:32:40;7.60;;;5.20;;
33672;SDS011;20011;51.510;9.942;2022-08-16T04:35:18;6.93;;;5.38;;
33672;SDS011;20011;51.510;9.942;2022-08-16T04:37:49;10.23;;;5.07;;
33672;SDS011;20011;51.510;9.942;2022-08-16T04:40:23;8.02;;;5.15;;
33672;SDS011;20011;51.510;9.942;2022-08-16T04:42:53;7.55;;;5.43;;
33672;SDS011;20011;51.510;9.942;2022-08-16T04:45:24;7.63;;;5.50;;
33672;SDS011;20011;51.510;9.942;2022-08-16T04:48:08;9.25;;;5.50;;
33672;SDS011;20011;51.510;9.942;2022-08-16T04:50:48;10.27;;;5.47;;
33672;SDS011;20011;51.510;9.942;2022-08-16T04:53:19;11.45;;;4.80;;
33672;SDS011;20011;51.510;9.942;2022-08-16T04:55:51;6.85;;;4.90;;
33672;SDS011;20011;51.510;9.942;2022-08-16T04:58:22;7.88;;;5.70;;
33672;SDS011;20011;51.510;9.942;2022-08-16T05:01:09;6.25;;;5.07;;
33672;SDS011;20011;51.510;9.942;2022-08-16T05:03:37;5.88;;;5.07;;
33672;SDS011;20011;51.510;9.942;2022-08-16T05:06:27;10.20;;;5.03;;
33672;SDS011;20011;51.510;9.942;2022-08-16T05:09:17;7.88;;;5.25;;
33672;SDS011;20011;51.510;9.942;2022-08-16T05:11:51;7.93;;;5.15;;
33672;SDS011;20011;51.510;9.942;2022-08-16T05:14:25;10.25;;;5.95;;
33672;SDS011;20011;51.510;9.942;2022-08-16T05:17:18;6.70;;;5.40;;
33672;SDS011;20011;51.510;9.942;2022-08-16T05:19:54;7.05;;;5.47;;
33672;SDS011;20011;51.510;9.942;2022-08-16T05:22:31;8.95;;;5.78;;
33672;SDS011;20011;51.510;9.942;2022-08-16T05:25:03;7.65;;;5.45;;
33672;SDS011;20011;51.510;9.942;2022-08-16T05:27:38;7.47;;;5.40;;
33672;SDS011;20011;51.510;9.942;2022-08-16T05:30:11;12.27;;;5.38;;
33672;SDS011;20011;51.510;9.942;2022-08-16T05:33:00;8.95;;;5.15;;
33672;SDS011;20011;51.510;9.942;2022-08-16T05:35:27;7.30;;;4.90;;
33672;SDS011;20011;51.510;9.942;2022-08-16T05:38:05;6.35;;;5.15;;
33672;SDS011;20011;51.510;9.942;2022-08-16T05:40:59;7.65;;;5.32;;
33672;SDS011;20011;51.510;9.942;2022-08-16T05:43:34;6.80;;;5.32;;
33672;SDS011;20011;51.510;9.942;2022-08-16T05:46:11;7.07;;;5.28;;
33672;SDS011;20011;51.510;9.942;2022-08-16T05:48:59;10.18;;;5.55;;
33672;SDS011;20011;51.510;9.942;2022-08-16T05:51:35;8.80;;;5.55;;
33672;SDS011;20011;51.510;9.942;2022-08-16T05:54:07;10.68;;;5.47;;
33672;SDS011;20011;51.510;9.942;2022-08-16T05:56:39;7.95;;;5.32;;
33672;SDS011;20011;51.510;9.942;2022-08-16T05:59:08;6.80;;;5.15;;
33672;SDS011;20011;51.510;9.942;2022-08-16T06:01:36;7.47;;;4.80;;
33672;SDS011;20011;51.510;9.942;2022-08-16T06:04:06;7.38;;;5.38;;
33672;SDS011;20011;51.510;9.942;2022-08-16T06:06:54;7.07;;;5.47;;
33672;SDS011;20011;51.510;9.942;2022-08-16T06:09:27;7.28;;;4.93;;
33672;SDS011;20011;51.510;9.942;2022-08-16T06:12:10;7.47;;;5.25;;
33672;SDS011;20011;51.510;9.942;2022-08-16T06:14:56;7.95;;;5.13;;
33672;SDS011;20011;51.510;9.942;2022-08-16T06:17:27;5.53;;;4.78;;
33672;SDS011;20011;51.510;9.942;2022-08-16T06:20:18;7.88;;;4.32;;
33672;SDS011;20011;51.510;9.942;2022-08-16T06:22:54;8.15;;;4.45;;
33672;SDS011;20011;51.510;9.942;2022-08-16T06:25:44;5.95;;;4.80;;
33672;SDS011;20011;51.510;9.942;2022-08-16T06:28:22;6.78;;;4.18;;
33672;SDS011;20011;51.510;9.942;2022-08-16T06:31:04;6.18;;;4.63;;
33672;SDS011;20011;51.510;9.942;2022-08-16T06:33:37;5.10;;;3.92;;
33672;SDS011;20011;51.510;9.942;2022-08-16T06:36:09;7.28;;;4.28;;
33672;SDS011;20011;51.510;9.942;2022-08-16T06:38:43;11.20;;;4.25;;
33672;SDS011;20011;51.510;9.942;2022-08-16T06:41:29;8.32;;;4.75;;
33672;SDS011;20011;51.510;9.942;2022-08-16T06:44:16;4.78;;;4.03;;
33672;SDS011;20011;51.510;9.942;2022-08-16T06:46:47;13.10;;;4.20;;
33672;SDS011;20011;51.510;9.942;2022-08-16T06:49:18;4.68;;;3.78;;
33672;SDS011;20011;51.510;9.942;2022-08-16T06:51:45;5.63;;;3.92;;
33672;SDS011;20011;51.510;9.942;2022-08-16T06:54:20;15.68;;;3.92;;
33672;SDS011;20011;51.510;9.942;2022-08-16T06:56:47;4.97;;;3.70;;
33672;SDS011;20011;51.510;9.942;2022-08-16T06:59:20;5.15;;;4.07;;
33672;SDS011;20011;51.510;9.942;2022-08-16T07:01:54;7.93;;;4.22;;
33672;SDS011;20011;51.510;9.942;2022-08-16T07:04:26;8.65;;;3.70;;
33672;SDS011;20011;51.510;9.942;2022-08-16T07:07:10;5.07;;;3.92;;
33672;SDS011;20011;51.510;9.942;2022-08-16T07:12:08;7.68;;;4.22;;
33672;SDS011;20011;51.510;9.942;2022-08-16T07:14:39;7.68;;;3.90;;
33672;SDS011;20011;51.510;9.942;2022-08-16T07:17:11;10.43;;;4.32;;
33672;SDS011;20011;51.510;9.942;2022-08-16T07:19:47;6.32;;;4.03;;
33672;SDS011;20011;51.510;9.942;2022-08-16T07:22:39;10.88;;;4.25;;
33672;SDS011;20011;51.510;9.942;2022-08-16T07:25:18;8.07;;;4.18;;
33672;SDS011;20011;51.510;9.942;2022-08-16T07:27:48;6.93;;;4.35;;
33672;SDS011;20011;51.510;9.942;2022-08-16T07:30:20;8.40;;;4.68;;
33672;SDS011;20011;51.510;9.942;2022-08-16T07:33:10;6.97;;;4.10;;
33672;SDS011;20011;51.510;9.942;2022-08-16T07:35:41;6.05;;;4.07;;
33672;SDS011;20011;51.510;9.942;2022-08-16T07:38:17;4.53;;;3.97;;
33672;SDS011;20011;51.510;9.942;2022-08-16T07:41:00;7.75;;;3.97;;
33672;SDS011;20011;51.510;9.942;2022-08-16T07:43:38;5.55;;;4.07;;
33672;SDS011;20011;51.510;9.942;2022-08-16T07:48:56;5.68;;;4.25;;
33672;SDS011;20011;51.510;9.942;2022-08-16T07:51:32;6.57;;;4.53;;
33672;SDS011;20011;51.510;9.942;2022-08-16T07:54:04;5.57;;;4.20;;
33672;SDS011;20011;51.510;9.942;2022-08-16T07:56:40;4.72;;;3.70;;
33672;SDS011;20011;51.510;9.942;2022-08-16T07:59:08;7.35;;;4.43;;
33672;SDS011;20011;51.510;9.942;2022-08-16T08:01:35;5.45;;;3.78;;
33672;SDS011;20011;51.510;9.942;2022-08-16T08:04:04;3.90;;;3.13;;
33672;SDS011;20011;51.510;9.942;2022-08-16T08:06:40;5.78;;;3.75;;
33672;SDS011;20011;51.510;9.942;2022-08-16T08:09:13;8.18;;;3.80;;
33672;SDS011;20011;51.510;9.942;2022-08-16T08:11:41;10.95;;;3.45;;
33672;SDS011;20011;51.510;9.942;2022-08-16T08:14:32;4.45;;;3.75;;
33672;SDS011;20011;51.510;9.942;2022-08-16T08:17:00;4.00;;;3.60;;
33672;SDS011;20011;51.510;9.942;2022-08-16T08:19:34;4.78;;;3.92;;
33672;SDS011;20011;51.510;9.942;2022-08-16T08:22:07;6.47;;;3.45;;
33672;SDS011;20011;51.510;9.942;2022-08-16T08:24:51;4.40;;;3.65;;
33672;SDS011;20011;51.510;9.942;2022-08-16T08:27:24;4.90;;;3.78;;
33672;SDS011;20011;51.510;9.942;2022-08-16T08:29:53;7.90;;;4.18;;
33672;SDS011;20011;51.510;9.942;2022-08-16T08:35:34;9.10;;;3.30;;
33672;SDS011;20011;51.510;9.942;2022-08-16T08:38:02;3.25;;;2.78;;
33672;SDS011;20011;51.510;9.942;2022-08-16T08:40:36;5.07;;;3.58;;
33672;SDS011;20011;51.510;9.942;2022-08-16T08:43:04;4.72;;;3.25;;
33672;SDS011;20011;51.510;9.942;2022-08-16T08:45:51;5.10;;;3.33;;
33672;SDS011;20011;51.510;9.942;2022-08-16T08:48:22;4.60;;;3.13;;
33672;SDS011;20011;51.510;9.942;2022-08-16T08:51:11;5.25;;;2.80;;
33672;SDS011;20011;51.510;9.942;2022-08-16T08:53:51;3.00;;;2.80;;
33672;SDS011;20011;51.510;9.942;2022-08-16T08:56:28;2.75;;;2.53;;
33672;SDS011;20011;51.510;9.942;2022-08-16T08:59:06;4.38;;;3.33;;
33672;SDS011;20011;51.510;9.942;2022-08-16T09:01:42;5.65;;;2.60;;
33672;SDS011;20011;51.510;9.942;2022-08-16T09:04:38;5.68;;;3.08;;
33672;SDS011;20011;51.510;9.942;2022-08-16T09:07:05;2.83;;;2.55;;
33672;SDS011;20011;51.510;9.942;2022-08-16T09:09:35;3.17;;;2.88;;
33672;SDS011;20011;51.510;9.942;2022-08-16T09:12:09;4.10;;;2.90;;
33672;SDS011;20011;51.510;9.942;2022-08-16T09:15:15;5.00;;;2.92;;
33672;SDS011;20011;51.510;9.942;2022-08-16T09:17:47;3.92;;;3.20;;
33672;SDS011;20011;51.510;9.942;2022-08-16T09:20:24;4.90;;;3.33;;
33672;SDS011;20011;51.510;9.942;2022-08-16T09:22:53;3.83;;;2.90;;
33672;SDS011;20011;51.510;9.942;2022-08-16T09:25:33;5.07;;;2.63;;
33672;SDS011;20011;51.510;9.942;2022-08-16T09:28:04;3.15;;;2.72;;
33672;SDS011;20011;51.510;9.942;2022-08-16T09:30:56;3.30;;;2.72;;
33672;SDS011;20011;51.510;9.942;2022-08-16T09:33:23;4.68;;;2.63;;
33672;SDS011;20011;51.510;9.942;2022-08-16T09:35:57;4.53;;;2.60;;
33672;SDS011;20011;51.510;9.942;2022-08-16T09:38:25;4.18;;;2.63;;
33672;SDS011;20011;51.510;9.942;2022-08-16T09:40:58;3.33;;;2.65;;
33672;SDS011;20011;51.510;9.942;2022-08-16T09:43:30;2.65;;;2.45;;
33672;SDS011;20011;51.510;9.942;2022-08-16T09:46:18;4.70;;;2.50;;
33672;SDS011;20011;51.510;9.942;2022-08-16T09:49:06;2.78;;;2.58;;
33672;SDS011;20011;51.510;9.942;2022-08-16T09:51:37;2.50;;;2.30;;
33672;SDS011;20011;51.510;9.942;2022-08-16T09:54:05;3.42;;;2.35;;
33672;SDS011;20011;51.510;9.942;2022-08-16T09:56:35;4.38;;;2.90;;
33672;SDS011;20011;51.510;9.942;2022-08-16T09:59:06;4.45;;;2.60;;
33672;SDS011;20011;51.510;9.942;2022-08-16T10:01:37;2.33;;;2.08;;
33672;SDS011;20011;51.510;9.942;2022-08-16T10:04:11;2.78;;;2.47;;
33672;SDS011;20011;51.510;9.942;2022-08-16T10:06:58;2.65;;;2.05;;
33672;SDS011;20011;51.510;9.942;2022-08-16T10:09:30;2.60;;;2.40;;
33672;SDS011;20011;51.510;9.942;2022-08-16T10:12:18;2.30;;;2.03;;
33672;SDS011;20011;51.510;9.942;2022-08-16T10:15:08;2.40;;;2.20;;
33672;SDS011;20011;51.510;9.942;2022-08-16T10:17:43;2.38;;;2.17;;
33672;SDS011;20011;51.510;9.942;2022-08-16T10:20:28;4.75;;;2.85;;
33672;SDS011;20011;51.510;9.942;2022-08-16T10:23:00;3.65;;;2.33;;
33672;SDS011;20011;51.510;9.942;2022-08-16T10:25:38;2.70;;;2.28;;
33672;SDS011;20011;51.510;9.942;2022-08-16T10:28:28;3.53;;;2.50;;
33672;SDS011;20011;51.510;9.942;2022-08-16T10:31:04;2.60;;;2.40;;
33672;SDS011;20011;51.510;9.942;2022-08-16T10:33:33;2.63;;;2.42;;
33672;SDS011;20011;51.510;9.942;2022-08-16T10:36:06;2.90;;;2.40;;
33672;SDS011;20011;51.510;9.942;2022-08-16T10:38:35;2.75;;;2.47;;
33672;SDS011;20011;51.510;9.942;2022-08-16T10:41:04;2.10;;;1.90;;
33672;SDS011;20011;51.510;9.942;2022-08-16T10:43:33;2.60;;;2.20;;
33672;SDS011;20011;51.510;9.942;2022-08-16T10:46:03;2.05;;;1.85;;
33672;SDS011;20011;51.510;9.942;2022-08-16T10:48:51;1.95;;;1.85;;
33672;SDS011;20011;51.510;9.942;2022-08-16T10:51:18;1.67;;;1.58;;
33672;SDS011;20011;51.510;9.942;2022-08-16T10:53:59;1.83;;;1.73;;
33672;SDS011;20011;51.510;9.942;2022-08-16T10:56:27;3.28;;;2.45;;
33672;SDS011;20011;51.510;9.942;2022-08-16T10:59:15;7.32;;;2.30;;
33672;SDS011;20011;51.510;9.942;2022-08-16T11:02:02;5.50;;;2.25;;
33672;SDS011;20011;51.510;9.942;2022-08-16T11:04:49;4.13;;;2.47;;
33672;SDS011;20011;51.510;9.942;2022-08-16T11:07:34;2.03;;;1.83;;
33672;SDS011;20011;51.510;9.942;2022-08-16T11:10:41;1.60;;;1.50;;
33672;SDS011;20011;51.510;9.942;2022-08-16T11:13:29;1.70;;;1.60;;
33672;SDS011;20011;51.510;9.942;2022-08-16T11:16:16;2.63;;;2.08;;
33672;SDS011;20011;51.510;9.942;2022-08-16T11:19:04;2.45;;;1.80;;
33672;SDS011;20011;51.510;9.942;2022-08-16T11:21:39;2.47;;;1.85;;
33672;SDS011;20011;51.510;9.942;2022-08-16T11:24:28;4.20;;;2.30;;
33672;SDS011;20011;51.510;9.942;2022-08-16T11:27:09;3.03;;;2.17;;
33672;SDS011;20011;51.510;9.942;2022-08-16T11:29:50;3.90;;;2.00;;
33672;SDS011;20011;51.510;9.942;2022-08-16T11:32:21;2.47;;;1.55;;
33672;SDS011;20011;51.510;9.942;2022-08-16T11:35:00;1.92;;;1.70;;
33672;SDS011;20011;51.510;9.942;2022-08-16T11:37:41;1.80;;;1.70;;
33672;SDS011;20011;51.510;9.942;2022-08-16T11:40:51;1.92;;;1.67;;
33672;SDS011;20011;51.510;9.942;2022-08-16T11:43:28;1.80;;;1.65;;
33672;SDS011;20011;51.510;9.942;2022-08-16T11:46:00;2.05;;;1.85;;
33672;SDS011;20011;51.510;9.942;2022-08-16T11:48:49;2.03;;;1.80;;
33672;SDS011;20011;51.510;9.942;2022-08-16T11:51:17;6.45;;;2.45;;
33672;SDS011;20011;51.510;9.942;2022-08-16T11:53:44;3.13;;;2.50;;
33672;SDS011;20011;51.510;9.942;2022-08-16T11:56:11;2.15;;;1.65;;
33672;SDS011;20011;51.510;9.942;2022-08-16T11:58:40;1.75;;;1.65;;
33672;SDS011;20011;51.510;9.942;2022-08-16T12:01:07;1.63;;;1.52;;
33672;SDS011;20011;51.510;9.942;2022-08-16T12:03:36;2.13;;;1.55;;
33672;SDS011;20011;51.510;9.942;2022-08-16T12:06:12;1.85;;;1.75;;
33672;SDS011;20011;51.510;9.942;2022-08-16T12:08:51;1.95;;;1.77;;
33672;SDS011;20011;51.510;9.942;2022-08-16T12:11:27;1.88;;;1.73;;
33672;SDS011;20011;51.510;9.942;2022-08-16T12:14:00;1.77;;;1.67;;
33672;SDS011;20011;51.510;9.942;2022-08-16T12:16:30;1.70;;;1.60;;
33672;SDS011;20011;51.510;9.942;2022-08-16T12:19:00;2.15;;;1.95;;
33672;SDS011;20011;51.510;9.942;2022-08-16T12:21:35;1.80;;;1.70;;
33672;SDS011;20011;51.510;9.942;2022-08-16T12:24:23;1.73;;;1.48;;
33672;SDS011;20011;51.510;9.942;2022-08-16T12:26:51;1.65;;;1.55;;
33672;SDS011;20011;51.510;9.942;2022-08-16T12:29:20;1.73;;;1.58;;
33672;SDS011;20011;51.510;9.942;2022-08-16T12:31:51;1.73;;;1.63;;
33672;SDS011;20011;51.510;9.942;2022-08-16T12:34:27;1.67;;;1.58;;
33672;SDS011;20011;51.510;9.942;2022-08-16T12:36:55;1.50;;;1.40;;
33672;SDS011;20011;51.510;9.942;2022-08-16T12:39:23;1.70;;;1.50;;
33672;SDS011;20011;51.510;9.942;2022-08-16T12:41:55;1.50;;;1.40;;
33672;SDS011;20011;51.510;9.942;2022-08-16T12:44:23;1.73;;;1.63;;
33672;SDS011;20011;51.510;9.942;2022-08-16T12:46:56;1.67;;;1.58;;
33672;SDS011;20011;51.510;9.942;2022-08-16T12:49:42;1.63;;;1.52;;
33672;SDS011;20011;51.510;9.942;2022-08-16T12:52:10;1.75;;;1.63;;
33672;SDS011;20011;51.510;9.942;2022-08-16T12:54:58;1.48;;;1.38;;
33672;SDS011;20011;51.510;9.942;2022-08-16T12:57:25;2.20;;;2.00;;
33672;SDS011;20011;51.510;9.942;2022-08-16T13:00:06;3.40;;;2.00;;
33672;SDS011;20011;51.510;9.942;2022-08-16T13:05:19;2.92;;;2.20;;
33672;SDS011;20011;51.510;9.942;2022-08-16T13:07:47;1.30;;;1.20;;
33672;SDS011;20011;51.510;9.942;2022-08-16T13:10:18;1.73;;;1.33;;
33672;SDS011;20011;51.510;9.942;2022-08-16T13:13:05;1.50;;;1.40;;
33672;SDS011;20011;51.510;9.942;2022-08-16T13:15:34;1.40;;;1.30;;
33672;SDS011;20011;51.510;9.942;2022-08-16T13:18:23;1.67;;;1.58;;
33672;SDS011;20011;51.510;9.942;2022-08-16T13:21:04;1.40;;;1.30;;
33672;SDS011;20011;51.510;9.942;2022-08-16T13:23:33;1.45;;;1.35;;
33672;SDS011;20011;51.510;9.942;2022-08-16T13:26:09;1.27;;;1.17;;
33672;SDS011;20011;51.510;9.942;2022-08-16T13:28:42;1.67;;;1.45;;
33672;SDS011;20011;51.510;9.942;2022-08-16T13:31:13;1.50;;;1.40;;
33672;SDS011;20011;51.510;9.942;2022-08-16T13:33:42;1.70;;;1.60;;
33672;SDS011;20011;51.510;9.942;2022-08-16T13:36:10;1.35;;;1.25;;
33672;SDS011;20011;51.510;9.942;2022-08-16T13:38:57;1.35;;;1.25;;
33672;SDS011;20011;51.510;9.942;2022-08-16T13:41:25;1.88;;;1.50;;
33672;SDS011;20011;51.510;9.942;2022-08-16T13:43:56;1.60;;;1.50;;
33672;SDS011;20011;51.510;9.942;2022-08-16T13:48:55;1.42;;;1.33;;
33672;SDS011;20011;51.510;9.942;2022-08-16T13:51:23;1.60;;;1.50;;
33672;SDS011;20011;51.510;9.942;2022-08-16T13:53:55;1.55;;;1.45;;
33672;SDS011;20011;51.510;9.942;2022-08-16T13:56:29;1.42;;;1.33;;
33672;SDS011;20011;51.510;9.942;2022-08-16T13:59:09;1.30;;;1.20;;
33672;SDS011;20011;51.510;9.942;2022-08-16T14:01:56;4.78;;;1.27;;
33672;SDS011;20011;51.510;9.942;2022-08-16T14:04:30;1.30;;;1.20;;
33672;SDS011;20011;51.510;9.942;2022-08-16T14:07:01;1.83;;;1.30;;
33672;SDS011;20011;51.510;9.942;2022-08-16T14:09:31;2.00;;;1.30;;
33672;SDS011;20011;51.510;9.942;2022-08-16T14:12:00;1.40;;;1.30;;
33672;SDS011;20011;51.510;9.942;2022-08-16T14:14:35;1.30;;;1.20;;
33672;SDS011;20011;51.510;9.942;2022-08-16T14:17:02;1.38;;;1.27;;
33672;SDS011;20011;51.510;9.942;2022-08-16T14:19:35;1.30;;;1.20;;
33672;SDS011;20011;51.510;9.942;2022-08-16T14:22:13;0.98;;;0.98;;
33672;SDS011;20011;51.510;9.942;2022-08-16T14:25:03;1.50;;;1.40;;
33672;SDS011;20011;51.510;9.942;2022-08-16T14:27:36;1.38;;;1.27;;
33672;SDS011;20011;51.510;9.942;2022-08-16T14:30:07;1.40;;;1.30;;
33672;SDS011;20011;51.510;9.942;2022-08-16T14:32:41;1.52;;;1.42;;
33672;SDS011;20011;51.510;9.942;2022-08-16T14:35:17;1.20;;;1.20;;
33672;SDS011;20011;51.510;9.942;2022-08-16T14:38:01;1.50;;;1.40;;
33672;SDS011;20011;51.510;9.942;2022-08-16T14:40:30;1.70;;;1.60;;
33672;SDS011;20011;51.510;9.942;2022-08-16T14:43:00;2.25;;;1.92;;
33672;SDS011;20011;51.510;9.942;2022-08-16T14:45:32;1.73;;;1.63;;
33672;SDS011;20011;51.510;9.942;2022-08-16T14:48:00;3.40;;;2.40;;
33672;SDS011;20011;51.510;9.942;2022-08-16T14:50:29;2.97;;;2.00;;
33672;SDS011;20011;51.510;9.942;2022-08-16T14:52:58;1.95;;;1.70;;
33672;SDS011;20011;51.510;9.942;2022-08-16T14:55:38;2.90;;;1.95;;
33672;SDS011;20011;51.510;9.942;2022-08-16T14:58:06;2.13;;;1.70;;
33672;SDS011;20011;51.510;9.942;2022-08-16T15:00:44;2.25;;;1.55;;
33672;SDS011;20011;51.510;9.942;2022-08-16T15:03:11;2.05;;;1.88;;
33672;SDS011;20011;51.510;9.942;2022-08-16T15:05:39;6.93;;;2.35;;
33672;SDS011;20011;51.510;9.942;2022-08-16T15:08:08;9.73;;;2.80;;
33672;SDS011;20011;51.510;9.942;2022-08-16T15:10:36;3.80;;;2.67;;
33672;SDS011;20011;51.510;9.942;2022-08-16T15:13:10;3.78;;;2.35;;
33672;SDS011;20011;51.510;9.942;2022-08-16T15:15:40;3.83;;;2.55;;
33672;SDS011;20011;51.510;9.942;2022-08-16T15:18:09;3.33;;;2.78;;
33672;SDS011;20011;51.510;9.942;2022-08-16T15:20:48;3.83;;;2.55;;
33672;SDS011;20011;51.510;9.942;2022-08-16T15:23:19;3.80;;;1.90;;
33672;SDS011;20011;51.510;9.942;2022-08-16T15:25:47;5.68;;;3.38;;
33672;SDS011;20011;51.510;9.942;2022-08-16T15:28:29;3.42;;;2.42;;
33672;SDS011;20011;51.510;9.942;2022-08-16T15:31:00;8.20;;;3.22;;
33672;SDS011;20011;51.510;9.942;2022-08-16T15:33:36;5.40;;;3.20;;
33672;SDS011;20011;51.510;9.942;2022-08-16T15:36:11;10.43;;;3.90;;
33672;SDS011;20011;51.510;9.942;2022-08-16T15:38:43;2.95;;;2.47;;
33672;SDS011;20011;51.510;9.942;2022-08-16T15:44:09;5.95;;;3.55;;
33672;SDS011;20011;51.510;9.942;2022-08-16T15:49:27;5.15;;;2.88;;
33672;SDS011;20011;51.510;9.942;2022-08-16T15:52:05;5.68;;;3.10;;
33672;SDS011;20011;51.510;9.942;2022-08-16T15:54:36;8.82;;;4.00;;
33672;SDS011;20011;51.510;9.942;2022-08-16T15:57:19;6.63;;;3.22;;
33672;SDS011;20011;51.510;9.942;2022-08-16T15:59:48;2.77;;;2.57;;
33672;SDS011;20011;51.510;9.942;2022-08-16T16:02:21;4.32;;;3.30;;
33672;SDS011;20011;51.510;9.942;2022-08-16T16:04:57;5.40;;;3.17;;
33672;SDS011;20011;51.510;9.942;2022-08-16T16:07:27;9.23;;;3.60;;
33672;SDS011;20011;51.510;9.942;2022-08-16T16:09:56;5.25;;;3.10;;